createdAt,value
2019-01-18T00:04:03.035Z,13.1
2019-01-18T00:14:02.233Z,13
2019-01-18T00:34:00.650Z,12.6
2019-01-18T01:13:58.187Z,12.7
2019-01-18T01:23:57.387Z,13.2
2019-01-18T01:33:56.591Z,12.5
2019-01-18T01:43:55.795Z,13.1
2019-01-18T01:53:54.998Z,12.8
2019-01-18T02:03:54.197Z,13
2019-01-18T02:13:53.401Z,13.2
2019-01-18T02:23:52.603Z,12.5
2019-01-18T02:33:51.807Z,12.7
2019-01-18T02:43:51.014Z,13
2019-01-18T02:53:50.214Z,12.9
2019-01-18T03:03:49.420Z,12.7
2019-01-18T03:13:48.645Z,12.8
2019-01-18T03:23:47.847Z,13.2
2019-01-18T03:33:47.059Z,13
2019-01-18T03:43:46.251Z,12.7
2019-01-18T03:53:45.482Z,12.8
2019-01-18T04:03:44.661Z,13.1
2019-01-18T04:13:43.861Z,12.8
2019-01-18T04:23:43.063Z,13.3
2019-01-18T04:33:42.259Z,12.3
2019-01-18T04:43:41.467Z,13.1
2019-01-18T04:53:40.673Z,12.5
2019-01-18T05:03:39.865Z,13.2
2019-01-18T05:13:39.067Z,13
2019-01-18T05:23:38.271Z,12.9
2019-01-18T05:33:37.474Z,12.9
2019-01-18T05:43:36.670Z,12.9
2019-01-18T05:53:35.877Z,13.1
2019-01-18T06:03:35.091Z,12.6
2019-01-18T06:13:34.293Z,13.2
2019-01-18T06:23:33.499Z,12.6
2019-01-18T06:33:32.705Z,14.4
2019-01-18T06:43:31.920Z,14.4
2019-01-18T06:53:31.129Z,14.3
2019-01-18T07:03:30.327Z,14.3
2019-01-18T07:13:29.538Z,13.9
2019-01-18T07:23:29.569Z,14
2019-01-18T07:33:27.956Z,14.4
2019-01-18T07:43:27.163Z,14.3
2019-01-18T07:53:26.361Z,14.5
2019-01-18T08:03:25.571Z,13.9
2019-01-18T08:13:24.775Z,14.3
2019-01-18T08:23:23.982Z,14.6
2019-01-18T08:33:23.191Z,14.6
2019-01-18T08:43:22.396Z,14.7
2019-01-18T08:53:21.602Z,14.1
2019-01-18T09:03:20.803Z,13.9
2019-01-18T09:13:20.009Z,14.4
2019-01-18T09:23:19.215Z,14.4
2019-01-18T09:33:18.417Z,14.7
2019-01-18T09:43:17.624Z,14.1
2019-01-18T09:53:16.826Z,14.1
2019-01-18T10:03:16.033Z,13.8
2019-01-18T10:13:15.245Z,14.2
2019-01-18T10:23:14.448Z,14
2019-01-18T10:33:13.661Z,14.5
2019-01-18T10:43:12.869Z,14.7
2019-01-18T10:53:12.075Z,14.2
2019-01-18T11:03:11.285Z,14.4
2019-01-18T11:13:10.496Z,14.4
2019-01-18T11:23:09.703Z,14.5
2019-01-18T11:33:08.921Z,14.6
2019-01-18T11:43:08.123Z,14.4
2019-01-18T11:53:07.342Z,13.8
2019-01-18T12:03:06.548Z,14.7
2019-01-18T12:13:05.752Z,14.1
2019-01-18T12:23:04.965Z,14.2
2019-01-18T12:33:04.176Z,14.4
2019-01-18T12:43:03.440Z,13.9
2019-01-18T12:53:02.601Z,14.6
2019-01-18T13:03:01.811Z,14.4
2019-01-18T13:13:01.028Z,14.4
2019-01-18T13:23:00.280Z,14.4
2019-01-18T13:32:59.442Z,14.5
2019-01-18T13:42:58.652Z,14
2019-01-18T13:52:57.856Z,13.7
2019-01-18T14:02:57.070Z,12.8
2019-01-18T14:12:56.276Z,12.8
2019-01-18T14:22:55.490Z,13.3
2019-01-18T14:32:55.495Z,13
2019-01-18T14:42:53.910Z,12.9
2019-01-18T14:52:53.118Z,12.7
2019-01-18T15:02:52.379Z,12.6
2019-01-18T15:12:51.534Z,12.7
2019-01-18T15:22:50.747Z,13
2019-01-18T15:32:49.960Z,12.6
2019-01-18T15:42:49.172Z,13.1
2019-01-18T15:52:48.385Z,13.2
2019-01-18T16:02:47.601Z,12.6
2019-01-18T16:12:46.817Z,12.9
2019-01-18T16:22:46.080Z,13.1
2019-01-18T16:32:45.243Z,12.9
2019-01-18T16:42:44.462Z,12.5
2019-01-18T16:52:43.674Z,13.2
2019-01-18T17:02:42.947Z,12.7
2019-01-18T17:12:42.109Z,13.2
2019-01-18T17:22:41.323Z,12.5
2019-01-18T17:32:40.598Z,13.1
2019-01-18T17:42:39.757Z,13.1
2019-01-18T17:52:38.971Z,12.7
2019-01-18T18:02:38.241Z,13.1
2019-01-18T18:12:37.404Z,13.2
2019-01-18T18:22:36.620Z,13.2
2019-01-18T18:32:35.837Z,12.6
2019-01-18T18:42:35.054Z,13.2
2019-01-18T18:52:34.270Z,13.1
2019-01-18T19:02:33.488Z,12.7
2019-01-18T19:12:32.728Z,12.7
2019-01-18T19:22:31.929Z,13.1
2019-01-18T19:32:31.138Z,12.8
2019-01-18T19:42:30.600Z,12.9
2019-01-18T19:52:29.605Z,12.7
2019-01-18T20:02:28.781Z,13
2019-01-18T20:12:28.031Z,12.6
2019-01-18T20:22:27.221Z,13.2
2019-01-18T20:32:26.470Z,12.5
2019-01-18T20:42:25.665Z,12.7
2019-01-18T20:52:24.873Z,13.2
2019-01-18T21:02:24.112Z,13
2019-01-18T21:12:23.340Z,13
2019-01-18T21:22:22.524Z,12.9
2019-01-18T21:32:21.754Z,13
2019-01-18T21:42:20.956Z,12.5
2019-01-18T21:52:20.167Z,13
2019-01-18T22:02:19.423Z,12.7
2019-01-18T22:12:18.589Z,13
2019-01-18T22:22:17.793Z,13.1
2019-01-18T22:32:17.004Z,13.1
2019-01-18T22:42:16.212Z,12.8
2019-01-18T22:52:15.426Z,12.6
2019-01-18T23:02:14.631Z,12.8
2019-01-18T23:12:13.837Z,13.1
2019-01-18T23:22:13.247Z,12.5
2019-01-18T23:32:12.253Z,12.4
2019-01-18T23:42:11.468Z,12.5
2019-01-18T23:52:10.669Z,12.5
